Time,TemperatureF,DewpointF,PressureIn,WindDirection,WindDirectionDegrees,WindSpeedMPH,WindSpeedGustMPH,Humidity,HourlyPrecipIn,Conditions,Clouds,dailyrainin,SoftwareType,DateUTC
2013-11-30 00:11:00,27.5,20.6,30.37,SSE,157,2.7,-999.0,75,-99.99,,,0.00,Acu-Link.com,2013-11-30 05:11:00,
2013-11-30 00:26:00,27.3,20.5,30.36,SSE,157,2.7,-999.0,75,-99.99,,,0.00,Acu-Link.com,2013-11-30 05:26:00,
2013-11-30 00:41:00,27.5,20.6,30.36,East,90,1.6,-999.0,75,-99.99,,,0.00,Acu-Link.com,2013-11-30 05:41:00,
2013-11-30 00:57:00,27.0,20.4,30.35,ESE,112,3.8,-999.0,76,-99.99,,,0.00,Acu-Link.com,2013-11-30 05:57:00,
2013-11-30 01:12:00,27.1,20.6,30.35,ESE,112,3.1,-999.0,76,-99.99,,,0.00,Acu-Link.com,2013-11-30 06:12:00,
2013-11-30 01:27:00,27.3,20.8,30.34,North,0,2.7,-999.0,76,-99.99,,,0.00,Acu-Link.com,2013-11-30 06:27:00,
2013-11-30 01:42:00,27.1,20.6,30.34,SE,135,4.7,-999.0,76,-99.99,,,0.00,Acu-Link.com,2013-11-30 06:42:00,
2013-11-30 01:57:00,27.5,20.9,30.33,ESE,112,3.8,-999.0,76,-99.99,,,0.00,Acu-Link.com,2013-11-30 06:57:00,
2013-11-30 02:13:00,27.5,20.9,30.34,SE,135,2.7,-999.0,76,-99.99,,,0.00,Acu-Link.com,2013-11-30 07:13:00,
2013-11-30 02:28:00,27.3,20.8,30.34,NE,45,2.2,-999.0,76,-99.99,,,0.00,Acu-Link.com,2013-11-30 07:28:00,
2013-11-30 02:43:00,27.0,20.4,30.34,East,90,2.2,-999.0,76,-99.99,,,0.00,Acu-Link.com,2013-11-30 07:43:00,
2013-11-30 02:59:00,26.2,20.0,30.33,East,90,0.0,-999.0,77,-99.99,,,0.00,Acu-Link.com,2013-11-30 07:59:00,
2013-11-30 03:14:00,24.8,19.2,30.34,ENE,67,2.7,-999.0,79,-99.99,,,0.00,Acu-Link.com,2013-11-30 08:14:00,
2013-11-30 03:29:00,24.8,19.8,30.33,East,90,1.6,-999.0,81,-99.99,,,0.00,Acu-Link.com,2013-11-30 08:29:00,
2013-11-30 03:44:00,24.6,19.6,30.33,East,90,2.2,-999.0,81,-99.99,,,0.00,Acu-Link.com,2013-11-30 08:44:00,
2013-11-30 03:59:00,24.6,19.6,30.32,ENE,67,2.7,-999.0,81,-99.99,,,0.00,Acu-Link.com,2013-11-30 08:59:00,
2013-11-30 04:14:00,25.2,19.9,30.32,ENE,67,1.6,-999.0,80,-99.99,,,0.00,Acu-Link.com,2013-11-30 09:14:00,
2013-11-30 04:30:00,25.0,19.7,30.31,NNE,22,1.6,-999.0,80,-99.99,,,0.00,Acu-Link.com,2013-11-30 09:30:00,
2013-11-30 04:45:00,25.2,19.9,30.30,East,90,1.6,-999.0,80,-99.99,,,0.00,Acu-Link.com,2013-11-30 09:45:00,
2013-11-30 05:00:00,25.2,19.6,30.31,NE,45,1.6,-999.0,79,-99.99,,,0.00,Acu-Link.com,2013-11-30 10:00:00,
2013-11-30 05:15:00,24.8,19.5,30.31,East,90,1.6,-999.0,80,-99.99,,,0.00,Acu-Link.com,2013-11-30 10:15:00,
2013-11-30 05:31:00,25.0,20.0,30.31,SW,225,0.0,-999.0,81,-99.99,,,0.00,Acu-Link.com,2013-11-30 10:31:00,
2013-11-30 05:46:00,24.8,19.8,30.30,NNW,337,0.0,-999.0,81,-99.99,,,0.00,Acu-Link.com,2013-11-30 10:46:00,
2013-11-30 06:01:00,24.8,20.1,30.30,ENE,67,2.7,-999.0,82,-99.99,,,0.00,Acu-Link.com,2013-11-30 11:01:00,
2013-11-30 06:16:00,24.6,19.6,30.30,ENE,67,2.7,-999.0,81,-99.99,,,0.00,Acu-Link.com,2013-11-30 11:16:00,
2013-11-30 06:32:00,24.3,19.6,30.29,East,90,2.2,-999.0,82,-99.99,,,0.00,Acu-Link.com,2013-11-30 11:32:00,
2013-11-30 06:47:00,24.3,19.6,30.29,ENE,67,1.6,-999.0,82,-99.99,,,0.00,Acu-Link.com,2013-11-30 11:47:00,
2013-11-30 07:02:00,24.1,19.7,30.29,NW,315,0.0,-999.0,83,-99.99,,,0.00,Acu-Link.com,2013-11-30 12:02:00,
2013-11-30 07:17:00,23.9,19.8,30.29,ENE,67,1.6,-999.0,84,-99.99,,,0.00,Acu-Link.com,2013-11-30 12:17:00,
2013-11-30 07:32:00,24.6,20.2,30.29,NNE,22,1.6,-999.0,83,-99.99,,,0.00,Acu-Link.com,2013-11-30 12:32:00,
2013-11-30 07:48:00,23.9,19.5,30.29,NW,315,0.0,-999.0,83,-99.99,,,0.00,Acu-Link.com,2013-11-30 12:48:00,
2013-11-30 08:03:00,23.7,19.9,30.29,WNW,292,0.0,-999.0,85,-99.99,,,0.00,Acu-Link.com,2013-11-30 13:03:00,
2013-11-30 08:18:00,23.7,20.2,30.29,SSE,157,0.0,-999.0,86,-99.99,,,0.00,Acu-Link.com,2013-11-30 13:18:00,
2013-11-30 08:33:00,25.3,21.2,30.29,SSW,202,1.6,-999.0,84,-99.99,,,0.00,Acu-Link.com,2013-11-30 13:33:00,
2013-11-30 08:48:00,26.4,21.7,30.28,WSW,247,0.0,-999.0,82,-99.99,,,0.00,Acu-Link.com,2013-11-30 13:48:00,
2013-11-30 09:03:00,27.3,22.0,30.28,WNW,292,0.0,-999.0,80,-99.99,,,0.00,Acu-Link.com,2013-11-30 14:03:00,
2013-11-30 09:19:00,28.0,22.4,30.28,ESE,112,2.2,-999.0,79,-99.99,,,0.00,Acu-Link.com,2013-11-30 14:19:00,
2013-11-30 09:34:00,30.0,22.4,30.28,SSW,202,3.8,-999.0,73,-99.99,,,0.00,Acu-Link.com,2013-11-30 14:34:00,
2013-11-30 09:49:00,30.6,22.6,30.28,SSW,202,4.7,-999.0,72,-99.99,,,0.00,Acu-Link.com,2013-11-30 14:49:00,
2013-11-30 10:04:00,32.2,23.2,30.28,WSW,247,3.8,-999.0,69,-99.99,,,0.00,Acu-Link.com,2013-11-30 15:04:00,
2013-11-30 10:19:00,33.8,24.0,30.28,West,270,9.4,-999.0,67,-99.99,,,0.00,Acu-Link.com,2013-11-30 15:19:00,
2013-11-30 10:35:00,34.9,25.4,30.28,West,270,6.3,-999.0,68,-99.99,,,0.00,Acu-Link.com,2013-11-30 15:35:00,
2013-11-30 10:50:00,36.1,25.9,30.27,West,270,2.7,-999.0,66,-99.99,,,0.00,Acu-Link.com,2013-11-30 15:50:00,
2013-11-30 11:05:00,37.6,26.9,30.26,SW,225,5.8,-999.0,65,-99.99,,,0.00,Acu-Link.com,2013-11-30 16:05:00,
2013-11-30 11:20:00,39.2,27.3,30.26,West,270,5.1,-999.0,62,-99.99,,,0.00,Acu-Link.com,2013-11-30 16:20:00,
2013-11-30 11:35:00,41.0,28.2,30.26,West,270,9.4,-999.0,60,-99.99,,,0.00,Acu-Link.com,2013-11-30 16:35:00,
2013-11-30 11:51:00,42.8,28.2,30.23,West,270,4.3,-999.0,56,-99.99,,,0.00,Acu-Link.com,2013-11-30 16:51:00,
2013-11-30 12:06:00,44.6,28.5,30.23,West,270,13.0,-999.0,53,-99.99,,,0.00,Acu-Link.com,2013-11-30 17:06:00,
2013-11-30 12:21:00,45.1,28.6,30.22,WNW,292,9.4,-999.0,52,-99.99,,,0.00,Acu-Link.com,2013-11-30 17:21:00,
2013-11-30 12:36:00,46.6,28.9,30.21,SW,225,8.3,-999.0,50,-99.99,,,0.00,Acu-Link.com,2013-11-30 17:36:00,
2013-11-30 12:51:00,47.3,29.1,30.19,West,270,7.4,-999.0,49,-99.99,,,0.00,Acu-Link.com,2013-11-30 17:51:00,
2013-11-30 13:06:00,48.9,29.1,30.19,West,270,4.3,-999.0,46,-99.99,,,0.00,Acu-Link.com,2013-11-30 18:06:00,
2013-11-30 13:21:00,49.8,28.2,30.18,WNW,292,8.3,-999.0,43,-99.99,,,0.00,Acu-Link.com,2013-11-30 18:21:00,
2013-11-30 13:37:00,50.9,29.2,30.17,West,270,8.3,-999.0,43,-99.99,,,0.00,Acu-Link.com,2013-11-30 18:37:00,
2013-11-30 13:52:00,51.1,28.8,30.16,West,270,11.0,-999.0,42,-99.99,,,0.00,Acu-Link.com,2013-11-30 18:52:00,
2013-11-30 14:07:00,51.6,29.9,30.15,West,270,7.8,-999.0,43,-99.99,,,0.00,Acu-Link.com,2013-11-30 19:07:00,
2013-11-30 14:22:00,51.6,29.3,30.14,West,270,7.8,-999.0,42,-99.99,,,0.00,Acu-Link.com,2013-11-30 19:22:00,
2013-11-30 14:37:00,52.5,29.5,30.13,West,270,9.8,-999.0,41,-99.99,,,0.00,Acu-Link.com,2013-11-30 19:37:00,
2013-11-30 14:52:00,52.5,29.5,30.12,West,270,10.3,-999.0,41,-99.99,,,0.00,Acu-Link.com,2013-11-30 19:52:00,
2013-11-30 15:08:00,53.4,29.7,30.12,SW,225,10.3,-999.0,40,-99.99,,,0.00,Acu-Link.com,2013-11-30 20:08:00,
2013-11-30 15:23:00,53.6,29.9,30.11,West,270,10.3,-999.0,40,-99.99,,,0.00,Acu-Link.com,2013-11-30 20:23:00,
2013-11-30 15:38:00,54.1,30.4,30.10,WSW,247,8.3,-999.0,40,-99.99,,,0.00,Acu-Link.com,2013-11-30 20:38:00,
2013-11-30 15:53:00,53.1,30.0,30.10,West,270,13.0,-999.0,41,-99.99,,,0.00,Acu-Link.com,2013-11-30 20:53:00,
2013-11-30 16:08:00,53.1,30.0,30.10,West,270,13.0,-999.0,41,-99.99,,,0.00,Acu-Link.com,2013-11-30 21:08:00,
2013-11-30 16:23:00,52.0,29.6,30.10,West,270,8.9,-999.0,42,-99.99,,,0.00,Acu-Link.com,2013-11-30 21:23:00,
2013-11-30 16:38:00,51.6,29.3,30.09,West,270,8.3,-999.0,42,-99.99,,,0.00,Acu-Link.com,2013-11-30 21:38:00,
2013-11-30 16:54:00,50.4,28.7,30.09,SW,225,8.9,-999.0,43,-99.99,,,0.00,Acu-Link.com,2013-11-30 21:54:00,
2013-11-30 17:09:00,48.4,29.1,30.08,West,270,4.7,-999.0,47,-99.99,,,0.00,Acu-Link.com,2013-11-30 22:09:00,
2013-11-30 17:24:00,47.5,28.8,30.08,SW,225,4.7,-999.0,48,-99.99,,,0.00,Acu-Link.com,2013-11-30 22:24:00,
2013-11-30 17:41:00,46.6,28.5,30.07,WSW,247,3.8,-999.0,49,-99.99,,,0.00,Acu-Link.com,2013-11-30 22:41:00,
2013-11-30 17:56:00,46.0,28.5,30.07,WSW,247,5.1,-999.0,50,-99.99,,,0.00,Acu-Link.com,2013-11-30 22:56:00,
2013-11-30 18:11:00,45.5,28.4,30.07,West,270,5.8,-999.0,51,-99.99,,,0.00,Acu-Link.com,2013-11-30 23:11:00,
2013-11-30 18:27:00,45.1,28.6,30.07,SSW,202,4.7,-999.0,52,-99.99,,,0.00,Acu-Link.com,2013-11-30 23:27:00,
2013-11-30 18:42:00,44.6,28.5,30.07,WSW,247,3.8,-999.0,53,-99.99,,,0.00,Acu-Link.com,2013-11-30 23:42:00,
2013-11-30 18:57:00,44.2,28.7,30.07,West,270,4.7,-999.0,54,-99.99,,,0.00,Acu-Link.com,2013-11-30 23:57:00,
2013-11-30 19:12:00,43.9,28.8,30.07,WSW,247,4.7,-999.0,55,-99.99,,,0.00,Acu-Link.com,2013-12-01 00:12:00,
2013-11-30 19:27:00,43.9,28.8,30.07,SW,225,3.1,-999.0,55,-99.99,,,0.00,Acu-Link.com,2013-12-01 00:27:00,
2013-11-30 19:42:00,43.3,28.7,30.07,West,270,4.7,-999.0,56,-99.99,,,0.00,Acu-Link.com,2013-12-01 00:42:00,
2013-11-30 19:57:00,43.0,28.8,30.07,West,270,5.1,-999.0,57,-99.99,,,0.00,Acu-Link.com,2013-12-01 00:57:00,
2013-11-30 20:12:00,43.0,28.8,30.07,West,270,5.1,-999.0,57,-99.99,,,0.00,Acu-Link.com,2013-12-01 01:12:00,
2013-11-30 20:27:00,42.4,28.7,30.06,WSW,247,5.8,-999.0,58,-99.99,,,0.00,Acu-Link.com,2013-12-01 01:27:00,
2013-11-30 20:42:00,42.3,29.0,30.07,West,270,4.7,-999.0,59,-99.99,,,0.00,Acu-Link.com,2013-12-01 01:42:00,
2013-11-30 20:57:00,42.1,28.8,30.06,West,270,5.1,-999.0,59,-99.99,,,0.00,Acu-Link.com,2013-12-01 01:57:00,
2013-11-30 21:13:00,41.7,28.9,30.06,West,270,5.8,-999.0,60,-99.99,,,0.00,Acu-Link.com,2013-12-01 02:13:00,
2013-11-30 21:28:00,41.5,28.7,30.06,WSW,247,7.4,-999.0,60,-99.99,,,0.00,Acu-Link.com,2013-12-01 02:28:00,
2013-11-30 21:43:00,41.9,29.0,30.05,WSW,247,6.7,-999.0,60,-99.99,,,0.00,Acu-Link.com,2013-12-01 02:43:00,
2013-11-30 21:58:00,41.9,29.0,30.05,West,270,6.7,-999.0,60,-99.99,,,0.00,Acu-Link.com,2013-12-01 02:58:00,
2013-11-30 22:13:00,41.7,28.5,30.05,West,270,6.3,-999.0,59,-99.99,,,0.00,Acu-Link.com,2013-12-01 03:13:00,
2013-11-30 22:28:00,41.7,28.5,30.05,WSW,247,6.3,-999.0,59,-99.99,,,0.00,Acu-Link.com,2013-12-01 03:28:00,
2013-11-30 22:43:00,41.9,28.2,30.05,West,270,8.3,-999.0,58,-99.99,,,0.00,Acu-Link.com,2013-12-01 03:43:00,
2013-11-30 22:59:00,41.9,28.2,30.04,West,270,11.4,-999.0,58,-99.99,,,0.00,Acu-Link.com,2013-12-01 03:59:00,
2013-11-30 23:14:00,41.7,28.0,30.04,West,270,9.8,-999.0,58,-99.99,,,0.00,Acu-Link.com,2013-12-01 04:14:00,
2013-11-30 23:29:00,41.4,27.7,30.04,WSW,247,8.9,-999.0,58,-99.99,,,0.00,Acu-Link.com,2013-12-01 04:29:00,
2013-11-30 23:44:00,40.8,27.2,30.04,West,270,6.3,-999.0,58,-99.99,,,0.00,Acu-Link.com,2013-12-01 04:44:00,
2013-11-30 23:59:00,40.5,26.9,30.04,West,270,5.8,-999.0,58,-99.99,,,0.00,Acu-Link.com,2013-12-01 04:59:00,